createdAt,value
2019-03-11T00:00:02.743Z,6.00
2019-03-11T00:02:52.149Z,4.33
2019-03-11T00:05:41.943Z,8.40
2019-03-11T00:08:31.292Z,3.20
2019-03-11T00:11:20.298Z,4.42
2019-03-11T00:14:09.730Z,6.67
2019-03-11T00:16:59.416Z,3.33
2019-03-11T00:19:48.069Z,6.20
2019-03-11T00:22:37.467Z,3.50
2019-03-11T00:25:26.809Z,3.62
2019-03-11T00:28:16.137Z,5.53
2019-03-11T00:31:05.148Z,3.40
2019-03-11T00:33:53.995Z,4.80
2019-03-11T00:36:43.481Z,7.12
2019-03-11T00:39:32.499Z,4.10
2019-03-11T00:42:21.864Z,5.25
2019-03-11T00:45:14.161Z,9.68
2019-03-11T00:48:03.735Z,6.80
2019-03-11T00:50:53.103Z,10.30
2019-03-11T00:53:42.282Z,9.63
2019-03-11T00:56:31.538Z,8.98
2019-03-11T00:59:21.207Z,13.45
2019-03-11T01:02:10.283Z,9.70
2019-03-11T01:04:59.182Z,6.80
2019-03-11T01:07:48.309Z,8.30
2019-03-11T01:10:37.986Z,5.87
2019-03-11T01:13:27.839Z,6.20
2019-03-11T01:16:16.937Z,4.28
2019-03-11T01:19:05.872Z,4.83
2019-03-11T01:21:55.274Z,3.92
2019-03-11T01:24:44.329Z,3.13
2019-03-11T01:27:33.293Z,3.10
2019-03-11T01:30:22.257Z,3.65
2019-03-11T01:33:11.831Z,2.87
2019-03-11T01:36:00.512Z,3.40
2019-03-11T01:38:49.762Z,3.58
2019-03-11T01:41:38.243Z,4.03
2019-03-11T01:44:26.837Z,5.62
2019-03-11T01:47:16.328Z,5.20
2019-03-11T01:50:08.274Z,4.92
2019-03-11T01:52:57.224Z,6.05
2019-03-11T01:55:46.507Z,5.80
2019-03-11T01:58:35.583Z,5.33
2019-03-11T02:01:24.937Z,5.92
2019-03-11T02:04:13.912Z,6.58
2019-03-11T02:07:03.079Z,6.07
2019-03-11T02:09:52.089Z,5.42
2019-03-11T02:12:41.412Z,5.22
2019-03-11T02:15:30.465Z,5.70
2019-03-11T02:18:19.225Z,5.28
2019-03-11T02:21:08.695Z,5.55
2019-03-11T02:23:57.991Z,6.85
2019-03-11T02:26:47.210Z,6.30
2019-03-11T02:29:36.066Z,5.58
2019-03-11T02:32:28.578Z,9.68
2019-03-11T02:35:26.138Z,7.95
2019-03-11T02:38:15.583Z,7.47
2019-03-11T02:41:05.016Z,6.00
2019-03-11T02:43:54.417Z,5.95
2019-03-11T02:46:43.062Z,6.57
2019-03-11T02:49:32.451Z,6.83
2019-03-11T02:52:21.780Z,5.20
2019-03-11T02:55:10.913Z,5.00
2019-03-11T02:58:00.394Z,4.45
2019-03-11T03:00:51.589Z,5.28
2019-03-11T03:03:44.450Z,3.98
2019-03-11T03:06:34.118Z,3.85
2019-03-11T03:09:23.295Z,3.22
2019-03-11T03:12:12.391Z,3.60
2019-03-11T03:15:01.375Z,3.20
2019-03-11T03:17:50.953Z,3.08
2019-03-11T03:20:39.804Z,2.80
2019-03-11T03:23:29.316Z,2.37
2019-03-11T03:26:18.289Z,2.98
2019-03-11T03:29:07.671Z,4.40
2019-03-11T03:31:57.329Z,3.58
2019-03-11T03:34:46.460Z,4.62
2019-03-11T03:37:35.558Z,5.78
2019-03-11T03:40:24.626Z,9.80
2019-03-11T03:43:13.684Z,6.75
2019-03-11T03:46:17.468Z,10.53
2019-03-11T03:48:53.569Z,10.32
2019-03-11T03:51:42.864Z,11.57
2019-03-11T03:54:32.305Z,9.00
2019-03-11T03:57:21.595Z,9.37
2019-03-11T04:00:12.546Z,9.85
2019-03-11T04:03:02.022Z,11.40
2019-03-11T04:05:51.327Z,11.90
2019-03-11T04:08:40.480Z,10.23
2019-03-11T04:11:29.122Z,9.40
2019-03-11T04:14:18.625Z,7.90
2019-03-11T04:17:07.727Z,6.20
2019-03-11T04:19:57.058Z,5.28
2019-03-11T04:22:46.067Z,4.35
2019-03-11T04:25:35.903Z,4.33
2019-03-11T04:28:25.175Z,5.03
2019-03-11T04:31:15.980Z,8.18
2019-03-11T04:34:04.825Z,5.67
2019-03-11T04:36:54.107Z,10.72
2019-03-11T04:39:43.015Z,10.13
2019-03-11T04:42:32.550Z,3.35
2019-03-11T04:45:21.792Z,3.58
2019-03-11T04:48:10.986Z,4.95
2019-03-11T04:50:59.994Z,2.80
2019-03-11T04:53:48.697Z,2.67
2019-03-11T04:56:38.274Z,2.95
2019-03-11T04:59:27.239Z,8.48
2019-03-11T05:02:16.507Z,2.50
2019-03-11T05:05:07.085Z,2.75
2019-03-11T05:07:55.989Z,5.05
2019-03-11T05:10:45.019Z,2.92
2019-03-11T05:13:34.502Z,3.65
2019-03-11T05:16:23.898Z,5.70
2019-03-11T05:19:13.147Z,3.20
2019-03-11T05:22:02.926Z,4.00
2019-03-11T05:24:51.906Z,7.53
2019-03-11T05:27:41.333Z,6.35
2019-03-11T05:30:30.502Z,6.95
2019-03-11T05:33:19.183Z,6.25
2019-03-11T05:36:08.769Z,6.60
2019-03-11T05:38:57.875Z,5.58
2019-03-11T05:41:47.002Z,7.45
2019-03-11T05:44:35.794Z,7.75
2019-03-11T05:47:25.128Z,8.20
2019-03-11T05:50:16.283Z,10.23
2019-03-11T05:53:05.512Z,12.05
2019-03-11T05:55:54.612Z,3.75
2019-03-11T05:58:44.352Z,9.98
2019-03-11T06:01:33.081Z,5.95
2019-03-11T06:04:22.481Z,3.80
2019-03-11T06:07:11.835Z,7.15
2019-03-11T06:10:00.743Z,5.00
2019-03-11T06:12:49.524Z,3.77
2019-03-11T06:15:39.046Z,3.27
2019-03-11T06:18:38.846Z,5.60
2019-03-11T06:21:35.605Z,6.15
2019-03-11T06:24:24.724Z,4.45
2019-03-11T06:27:14.259Z,3.45
2019-03-11T06:30:03.965Z,4.33
2019-03-11T06:32:53.503Z,15.78
2019-03-11T06:35:42.565Z,7.55
2019-03-11T06:38:31.916Z,5.50
2019-03-11T06:41:21.111Z,14.75
2019-03-11T06:44:10.941Z,8.00
2019-03-11T06:47:00.714Z,7.78
2019-03-11T06:49:50.247Z,10.25
2019-03-11T06:52:39.688Z,10.70
2019-03-11T06:55:29.301Z,11.38
2019-03-11T06:58:17.874Z,15.75
2019-03-11T07:01:07.221Z,7.10
2019-03-11T07:03:56.439Z,11.00
2019-03-11T07:06:45.715Z,8.33
2019-03-11T07:09:35.252Z,12.33
2019-03-11T07:12:23.863Z,9.95
2019-03-11T07:15:14.453Z,11.57
2019-03-11T07:18:03.480Z,4.58
2019-03-11T07:20:52.929Z,6.87
2019-03-11T07:23:42.532Z,12.78
2019-03-11T07:26:32.078Z,7.08
2019-03-11T07:29:21.051Z,7.62
2019-03-11T07:32:09.947Z,8.60
2019-03-11T07:35:07.950Z,12.50
2019-03-11T07:37:49.679Z,11.28
2019-03-11T07:40:39.260Z,10.60
2019-03-11T07:43:28.503Z,8.50
2019-03-11T07:46:17.999Z,9.95
2019-03-11T07:49:07.230Z,5.40
2019-03-11T07:51:56.432Z,12.47
2019-03-11T07:54:45.786Z,13.70
2019-03-11T07:57:34.765Z,8.78
2019-03-11T08:00:24.202Z,10.90
2019-03-11T08:03:13.404Z,9.93
2019-03-11T08:06:02.667Z,12.45
2019-03-11T08:08:52.325Z,12.33
2019-03-11T08:11:41.124Z,4.17
2019-03-11T08:14:30.409Z,11.65
2019-03-11T08:17:19.359Z,8.18
2019-03-11T08:20:11.665Z,8.33
2019-03-11T08:23:01.151Z,5.67
2019-03-11T08:25:50.644Z,17.90
2019-03-11T08:28:39.795Z,15.25
2019-03-11T08:31:28.863Z,10.63
2019-03-11T08:34:18.440Z,13.83
2019-03-11T08:37:07.884Z,10.82
2019-03-11T08:39:56.882Z,10.05
2019-03-11T08:42:45.837Z,6.62
2019-03-11T08:45:36.306Z,10.60
2019-03-11T08:48:25.694Z,5.22
2019-03-11T08:51:15.190Z,15.75
2019-03-11T08:54:04.174Z,7.20
2019-03-11T08:56:53.001Z,13.40
2019-03-11T08:59:42.197Z,12.95
2019-03-11T09:02:30.932Z,10.05
2019-03-11T09:05:20.150Z,9.23
2019-03-11T09:08:09.574Z,6.00
2019-03-11T09:10:59.043Z,3.55
2019-03-11T09:13:48.141Z,4.35
2019-03-11T09:16:37.274Z,8.73
2019-03-11T09:19:26.630Z,9.60
2019-03-11T09:22:16.138Z,10.15
2019-03-11T09:25:09.140Z,9.00
2019-03-11T09:27:58.648Z,8.33
2019-03-11T09:30:47.657Z,6.80
2019-03-11T09:33:37.198Z,10.13
2019-03-11T09:36:35.125Z,7.83
2019-03-11T09:39:24.437Z,6.62
2019-03-11T09:42:13.255Z,4.72
2019-03-11T09:45:02.569Z,6.47
2019-03-11T09:47:51.571Z,8.90
2019-03-11T09:50:41.072Z,4.70
2019-03-11T09:53:29.837Z,6.37
2019-03-11T09:56:18.726Z,7.87
2019-03-11T09:59:08.129Z,5.53
2019-03-11T10:01:57.665Z,6.45
2019-03-11T10:04:46.244Z,5.62
2019-03-11T10:07:35.687Z,7.97
2019-03-11T10:10:29.497Z,4.62
2019-03-11T10:13:18.686Z,8.30
2019-03-11T10:16:08.098Z,5.22
2019-03-11T10:18:56.762Z,6.37
2019-03-11T10:21:45.776Z,3.87
2019-03-11T10:24:34.836Z,6.17
2019-03-11T10:27:23.773Z,3.90
2019-03-11T10:30:25.925Z,2.58
2019-03-11T10:33:15.836Z,3.62
2019-03-11T10:36:04.550Z,5.83
2019-03-11T10:38:53.525Z,4.70
2019-03-11T10:41:42.591Z,2.92
2019-03-11T10:44:31.765Z,6.78
2019-03-11T10:47:21.129Z,3.50
2019-03-11T10:50:14.053Z,3.50
2019-03-11T10:53:03.360Z,5.50
2019-03-11T10:55:52.424Z,3.90
2019-03-11T10:58:41.800Z,6.22
2019-03-11T11:01:30.564Z,8.38
2019-03-11T11:04:19.122Z,6.92
2019-03-11T11:07:08.002Z,7.15
2019-03-11T11:09:57.233Z,8.65
2019-03-11T11:12:45.986Z,8.48
2019-03-11T11:15:36.082Z,9.20
2019-03-11T11:18:24.865Z,3.87
2019-03-11T11:21:14.312Z,8.28
2019-03-11T11:24:03.871Z,4.28
2019-03-11T11:26:53.259Z,10.13
2019-03-11T11:29:42.326Z,3.15
2019-03-11T11:32:31.962Z,7.03
2019-03-11T11:35:21.923Z,2.25
2019-03-11T11:38:11.152Z,4.10
2019-03-11T11:43:48.876Z,2.00
2019-03-11T11:46:37.940Z,1.70
2019-03-11T11:49:27.209Z,2.50
2019-03-11T11:52:16.269Z,3.30
2019-03-11T11:55:08.924Z,1.85
2019-03-11T11:57:58.094Z,2.50
2019-03-11T12:00:51.973Z,1.75
2019-03-11T12:03:41.046Z,1.90
2019-03-11T12:06:30.219Z,2.58
2019-03-11T12:09:19.450Z,4.53
2019-03-11T12:12:08.469Z,5.90
2019-03-11T12:14:57.290Z,3.83
2019-03-11T12:17:46.299Z,4.22
2019-03-11T12:20:35.833Z,6.58
2019-03-11T12:23:24.704Z,5.70
2019-03-11T12:26:13.793Z,6.65
2019-03-11T12:29:03.257Z,3.40
2019-03-11T12:31:52.627Z,4.97
2019-03-11T12:34:41.968Z,5.28
2019-03-11T12:37:30.948Z,5.75
2019-03-11T12:40:21.027Z,2.70
2019-03-11T12:43:10.545Z,3.55
2019-03-11T12:45:59.662Z,1.97
2019-03-11T12:48:49.024Z,2.55
2019-03-11T12:51:48.910Z,1.95
2019-03-11T12:54:28.413Z,5.03
2019-03-11T12:57:17.969Z,4.08
2019-03-11T13:00:19.272Z,2.15
2019-03-11T13:03:08.587Z,2.12
2019-03-11T13:05:57.930Z,3.10
2019-03-11T13:08:47.436Z,2.30
2019-03-11T13:11:36.010Z,2.27
2019-03-11T13:14:24.955Z,4.00
2019-03-11T13:17:13.565Z,2.37
2019-03-11T13:20:02.258Z,1.80
2019-03-11T13:28:30.470Z,1.65
2019-03-11T13:31:19.088Z,3.00
2019-03-11T13:34:08.396Z,4.58
2019-03-11T13:36:57.421Z,2.92
2019-03-11T13:39:46.491Z,1.80
2019-03-11T13:42:35.671Z,2.47
2019-03-11T13:45:25.067Z,2.72
2019-03-11T13:48:14.323Z,4.15
2019-03-11T13:51:03.682Z,4.22
2019-03-11T13:53:52.982Z,3.00
2019-03-11T13:56:41.961Z,2.67
2019-03-11T13:59:31.310Z,1.87
2019-03-11T14:02:20.352Z,1.60
2019-03-11T14:05:10.667Z,2.17
2019-03-11T14:10:48.071Z,1.65
2019-03-11T14:13:37.262Z,2.92
2019-03-11T14:16:26.834Z,1.70
2019-03-11T14:19:16.144Z,2.35
2019-03-11T14:22:05.274Z,2.08
2019-03-11T14:24:53.871Z,3.27
2019-03-11T14:27:42.675Z,2.12
2019-03-11T14:30:31.241Z,2.50
2019-03-11T14:33:21.128Z,1.45
2019-03-11T14:36:10.379Z,2.33
2019-03-11T14:38:59.747Z,5.50
2019-03-11T14:41:48.805Z,3.87
2019-03-11T14:44:38.492Z,1.85
2019-03-11T14:47:27.863Z,2.33
2019-03-11T14:50:19.025Z,5.85
2019-03-11T14:53:08.654Z,2.30
2019-03-11T14:55:57.837Z,1.98
2019-03-11T14:58:47.299Z,1.75
2019-03-11T15:01:36.189Z,1.40
2019-03-11T15:04:25.530Z,2.22
2019-03-11T15:07:14.665Z,1.60
2019-03-11T15:10:04.486Z,4.65
2019-03-11T15:12:53.576Z,3.12
2019-03-11T15:15:42.914Z,1.10
2019-03-11T15:18:31.601Z,1.15
2019-03-11T15:21:20.839Z,1.62
2019-03-11T15:24:10.530Z,1.00
2019-03-11T15:27:00.299Z,1.90
2019-03-11T15:29:49.366Z,1.62
2019-03-11T15:32:37.920Z,2.45
2019-03-11T15:35:26.859Z,2.67
2019-03-11T15:38:16.309Z,1.70
2019-03-11T15:41:06.314Z,3.17
2019-03-11T15:43:55.908Z,1.92
2019-03-11T15:46:45.279Z,2.15
2019-03-11T15:49:34.247Z,2.10
2019-03-11T15:52:23.354Z,5.27
2019-03-11T15:55:15.638Z,2.00
2019-03-11T15:58:05.012Z,5.20
2019-03-11T16:00:54.405Z,2.55
2019-03-11T16:03:43.609Z,3.72
2019-03-11T16:06:32.546Z,4.20
2019-03-11T16:09:21.462Z,2.90
2019-03-11T16:12:10.857Z,3.33
2019-03-11T16:14:59.899Z,4.20
2019-03-11T16:17:49.317Z,6.85
2019-03-11T16:20:38.875Z,2.20
2019-03-11T16:23:27.792Z,5.15
2019-03-11T16:26:16.902Z,3.27
2019-03-11T16:29:06.101Z,2.00
2019-03-11T16:31:55.645Z,2.70
2019-03-11T16:34:45.004Z,4.22
2019-03-11T16:37:33.889Z,2.10
2019-03-11T16:40:23.177Z,4.10
2019-03-11T16:43:12.422Z,2.15
2019-03-11T16:46:04.465Z,2.20
2019-03-11T16:48:52.396Z,6.95
2019-03-11T16:51:41.348Z,1.98
2019-03-11T16:54:30.967Z,2.33
2019-03-11T16:57:19.909Z,2.55
2019-03-11T17:00:22.650Z,6.35
2019-03-11T17:03:12.169Z,6.35
2019-03-11T17:06:01.427Z,2.20
2019-03-11T17:08:50.455Z,3.77
2019-03-11T17:11:39.956Z,3.22
2019-03-11T17:14:29.011Z,3.42
2019-03-11T17:17:18.094Z,10.37
2019-03-11T17:20:16.223Z,6.10
2019-03-11T17:23:05.042Z,8.95
2019-03-11T17:25:53.986Z,4.83
2019-03-11T17:28:43.378Z,5.50
2019-03-11T17:31:32.831Z,7.03
2019-03-11T17:34:22.494Z,13.72
2019-03-11T17:37:12.112Z,17.27
2019-03-11T17:40:01.070Z,13.93
2019-03-11T17:42:50.659Z,9.60
2019-03-11T17:45:39.409Z,8.60
2019-03-11T17:48:28.957Z,3.83
2019-03-11T17:51:18.532Z,3.42
2019-03-11T17:54:07.798Z,8.68
2019-03-11T17:56:57.451Z,8.63
2019-03-11T17:59:46.039Z,8.93
2019-03-11T18:02:35.922Z,13.38
2019-03-11T18:05:24.848Z,5.58
2019-03-11T18:08:14.356Z,9.20
2019-03-11T18:11:03.598Z,5.97
2019-03-11T18:13:52.998Z,14.25
2019-03-11T18:16:42.250Z,7.65
2019-03-11T18:19:31.859Z,9.40
2019-03-11T18:22:21.011Z,8.08
2019-03-11T18:25:13.657Z,8.65
2019-03-11T18:28:03.050Z,8.80
2019-03-11T18:30:52.409Z,9.08
2019-03-11T18:33:42.005Z,10.63
2019-03-11T18:36:30.679Z,8.63
2019-03-11T18:39:20.223Z,12.75
2019-03-11T18:42:09.418Z,11.90
2019-03-11T18:44:58.415Z,15.90
2019-03-11T18:47:47.939Z,6.53
2019-03-11T18:50:37.126Z,9.75
2019-03-11T18:53:26.261Z,14.23
2019-03-11T18:56:15.052Z,15.85
2019-03-11T18:59:04.659Z,26.80
2019-03-11T19:01:53.449Z,10.35
2019-03-11T19:04:43.269Z,15.30
2019-03-11T19:07:32.293Z,11.30
2019-03-11T19:10:21.257Z,9.70
2019-03-11T19:13:10.660Z,10.23
2019-03-11T19:15:59.287Z,16.23
2019-03-11T19:18:48.883Z,25.85
2019-03-11T19:21:38.363Z,9.83
2019-03-11T19:24:27.806Z,16.90
2019-03-11T19:27:16.779Z,12.35
2019-03-11T19:30:12.762Z,7.65
2019-03-11T19:33:01.376Z,14.25
2019-03-11T19:35:50.734Z,23.95
2019-03-11T19:38:40.090Z,24.02
2019-03-11T19:41:29.044Z,12.13
2019-03-11T19:44:20.389Z,18.70
2019-03-11T19:47:09.729Z,27.40
2019-03-11T19:49:58.893Z,23.92
2019-03-11T19:52:57.727Z,16.97
2019-03-11T19:55:38.837Z,32.42
2019-03-11T19:58:27.410Z,17.87
2019-03-11T20:01:16.807Z,19.15
2019-03-11T20:04:06.079Z,25.30
2019-03-11T20:06:55.330Z,19.65
2019-03-11T20:09:44.129Z,16.35
2019-03-11T20:12:33.401Z,20.05
2019-03-11T20:15:22.424Z,25.72
2019-03-11T20:18:12.069Z,17.52
2019-03-11T20:21:01.264Z,23.65
2019-03-11T20:23:50.260Z,18.77
2019-03-11T20:26:39.307Z,16.30
2019-03-11T20:29:28.781Z,9.00
2019-03-11T20:32:17.726Z,16.25
2019-03-11T20:35:09.006Z,10.70
2019-03-11T20:37:58.558Z,10.43
2019-03-11T20:40:48.186Z,10.23
2019-03-11T20:43:37.492Z,14.98
2019-03-11T20:46:26.304Z,14.13
2019-03-11T20:49:15.719Z,21.93
2019-03-11T20:52:05.142Z,28.10
2019-03-11T20:54:54.166Z,13.72
2019-03-11T20:57:44.533Z,9.43
2019-03-11T21:00:33.849Z,5.22
2019-03-11T21:03:23.191Z,31.12
2019-03-11T21:06:12.317Z,17.73
2019-03-11T21:09:01.945Z,20.23
2019-03-11T21:11:50.786Z,12.45
2019-03-11T21:14:40.241Z,12.18
2019-03-11T21:17:29.682Z,14.45
2019-03-11T21:20:19.336Z,16.97
2019-03-11T21:23:09.588Z,17.45
2019-03-11T21:25:59.083Z,12.90
2019-03-11T21:28:48.602Z,22.82
2019-03-11T21:31:38.000Z,10.20
2019-03-11T21:34:27.848Z,22.30
2019-03-11T21:37:17.131Z,9.90
2019-03-11T21:40:21.815Z,17.37
2019-03-11T21:43:10.818Z,18.65
2019-03-11T21:45:59.889Z,15.75
2019-03-11T21:48:50.477Z,12.25
2019-03-11T21:51:39.347Z,11.22
2019-03-11T21:54:28.882Z,10.78
2019-03-11T21:57:17.747Z,13.78
2019-03-11T22:00:32.844Z,15.30
2019-03-11T22:03:11.344Z,13.65
2019-03-11T22:06:00.410Z,9.95
2019-03-11T22:08:49.753Z,16.30
2019-03-11T22:11:40.041Z,20.37
2019-03-11T22:14:29.131Z,11.10
2019-03-11T22:17:17.855Z,16.95
2019-03-11T22:20:10.914Z,15.08
2019-03-11T22:23:00.304Z,15.23
2019-03-11T22:25:49.989Z,11.55
2019-03-11T22:28:38.633Z,21.90
2019-03-11T22:31:28.005Z,17.55
2019-03-11T22:34:20.715Z,17.32
2019-03-11T22:37:08.398Z,14.53
2019-03-11T22:39:57.849Z,15.85
2019-03-11T22:42:47.663Z,14.87
2019-03-11T22:45:36.590Z,21.27
2019-03-11T22:48:26.011Z,13.25
2019-03-11T22:51:15.167Z,15.48
2019-03-11T22:54:04.133Z,16.62
2019-03-11T22:56:53.089Z,19.98
2019-03-11T22:59:42.459Z,22.13
2019-03-11T23:02:40.217Z,19.87
2019-03-11T23:05:21.819Z,13.40
2019-03-11T23:08:11.317Z,18.00
2019-03-11T23:11:00.763Z,14.00
2019-03-11T23:13:49.662Z,20.72
2019-03-11T23:16:39.091Z,12.07
2019-03-11T23:19:28.011Z,33.90
2019-03-11T23:22:17.329Z,17.20
2019-03-11T23:25:08.029Z,21.60
2019-03-11T23:27:57.195Z,15.68
2019-03-11T23:30:46.875Z,19.20
2019-03-11T23:33:36.099Z,12.15
2019-03-11T23:36:25.627Z,15.72
2019-03-11T23:39:14.619Z,21.17
2019-03-11T23:42:04.063Z,19.20
2019-03-11T23:44:53.152Z,18.02
2019-03-11T23:47:42.193Z,12.63
2019-03-11T23:50:31.277Z,14.07
2019-03-11T23:53:20.631Z,12.47
2019-03-11T23:56:10.159Z,18.87
2019-03-11T23:58:59.773Z,13.58
